Ana Sayfa
METAR-TAF:

METAR-TAF

Havaalanları :

Odessa Uluslararası Havalimanı

Odessa, Ukrayna

Enlem: 46-26N, Boylam: 030-46E, yükseklik: 42 m

Güncel hava durumu gözlemi

Rapor saat 16:30 UTC de 13 dakika önce yapıldı.
Rüzgar değişken yönden 2 kt
Sıcaklık 27°C
Nem 34%
Basınç 1018 hPa
Görüş mesafesi 10 km veya daha fazla
1500 m altında bulut yok ve kümülonimbus yok

METAR: UKOO 231630Z VRB01MPS CAVOK 27/10 Q1018 R16/090060 NOSIG

Saat: 19:43 (16:43 UTC)

Tahmin

Rapor saat 11:05 UTC de 5 saat ve 38 dakika önce yapıldı.
Ayın 23'si saat 12 UTC'den ayın 24'si saat 12 UTC'ye kadar geçerli Tahmin
Rüzgar güneydan 6 kt
Görüş mesafesi: 6000 m
2000 ft yükseklikte parçalı bulutlu
2500 ft yükseklikte parçalı bulutlu, Kümülonimbus.
Dönüşüyor
ayın 23'si saat 18 UTC'den ayın 23'si saat 19 UTC'ye kadar
Rüzgar kuzey/kuzeydoğudan 6 kt
Görüş mesafesi: 2100 m
Pus

TAF: UKOO 231105Z 2312/2412 17003MPS 6000 SCT020 SCT025CB TX27/2313Z TN17/2402Z BECMG 2318/2319 02003MPS 2100 BR

4.000'den fazla havaalanı için hava durumu gözlemleri ve tahminleri (METAR ve TAF raporları).

Kullanılabilir istasyonlar harita üzerinde sarı ve kırmızı noktalarla gösterilir.

İstasyonun adını görmek için fareyi noktanın üzerinde gezdirin.

Sonrasında hava gözlem ve tahminlerini görmek için tıklayın.

Haritayı değiştirmek için: yaklaştırmak için siyah artı işaretli yeşil düğmeye ve uzaklaştırmak için de eksi işaretli düğmeye hızla tıklayın; bitişik haritalar için yeşil okları kullanın.


METAR-TAF: